createdAt,value
2018-05-18T00:01:05.424Z,102046.96
2018-05-18T00:03:33.056Z,102050.20
2018-05-18T00:06:00.641Z,102047.91
2018-05-18T00:08:28.256Z,102049.41
2018-05-18T00:10:55.897Z,102048.99
2018-05-18T00:13:23.562Z,102050.36
2018-05-18T00:15:51.160Z,102054.44
2018-05-18T00:18:18.882Z,102051.48
2018-05-18T00:20:46.455Z,102051.44
2018-05-18T00:23:14.045Z,102042.66
2018-05-18T00:25:41.657Z,102049.85
2018-05-18T00:28:09.228Z,102047.65
2018-05-18T00:30:37.425Z,102048.05
2018-05-18T00:33:05.286Z,102041.13
2018-05-18T00:35:32.873Z,102049.69
2018-05-18T00:38:00.981Z,102042.92
2018-05-18T00:40:28.625Z,102048.72
2018-05-18T00:42:56.212Z,102041.84
2018-05-18T00:45:23.811Z,102043.44
2018-05-18T00:47:51.462Z,102044.14
2018-05-18T00:50:19.111Z,102041.88
2018-05-18T00:52:46.692Z,102039.81
2018-05-18T00:55:26.142Z,102036.59
2018-05-18T00:57:53.721Z,102035.09
2018-05-18T01:00:21.398Z,102041.73
2018-05-18T01:02:49.638Z,102044.44
2018-05-18T01:05:17.272Z,102039.44
2018-05-18T01:07:45.151Z,102039.16
2018-05-18T01:10:12.798Z,102041.32
2018-05-18T01:12:40.433Z,102043.36
2018-05-18T01:15:08.597Z,102038.08
2018-05-18T01:17:36.266Z,102036.72
2018-05-18T01:20:03.888Z,102033.73
2018-05-18T01:22:31.505Z,102034.24
2018-05-18T01:24:59.115Z,102026.13
2018-05-18T01:27:26.768Z,102024.77
2018-05-18T01:29:54.751Z,102025.88
2018-05-18T01:32:22.356Z,102027.77
2018-05-18T01:34:49.939Z,102016.94
2018-05-18T01:37:17.627Z,102027.83
2018-05-18T01:39:45.632Z,102026.42
2018-05-18T01:42:13.294Z,102025.34
2018-05-18T01:44:40.870Z,102025.48
2018-05-18T01:47:08.709Z,102025.20
2018-05-18T01:49:36.316Z,102029.27
2018-05-18T01:52:03.991Z,102026.58
2018-05-18T01:54:31.672Z,102028.75
2018-05-18T01:56:59.248Z,102024.97
2018-05-18T01:59:26.927Z,102029.27
2018-05-18T02:01:54.519Z,102028.34
2018-05-18T02:04:22.129Z,102025.63
2018-05-18T02:06:49.853Z,102033.74
2018-05-18T02:09:17.429Z,102035.23
2018-05-18T02:11:45.026Z,102035.61
2018-05-18T02:14:12.707Z,102032.39
2018-05-18T02:16:40.547Z,102032.39
2018-05-18T02:19:08.418Z,102037.95
2018-05-18T02:21:36.160Z,102026.31
2018-05-18T02:24:03.734Z,102027.12
2018-05-18T02:26:31.400Z,102027.92
2018-05-18T02:28:59.113Z,102034.45
2018-05-18T02:31:26.929Z,102031.74
2018-05-18T02:33:54.762Z,102029.56
2018-05-18T02:36:22.530Z,102025.63
2018-05-18T02:38:50.199Z,102029.55
2018-05-18T02:41:17.788Z,102022.64
2018-05-18T02:43:45.493Z,102023.75
2018-05-18T02:46:13.140Z,102022.93
2018-05-18T02:48:40.837Z,102021.72
2018-05-18T02:51:08.411Z,102014.94
2018-05-18T02:53:36.383Z,102021.86
2018-05-18T02:56:04.040Z,102017.00
2018-05-18T02:58:31.699Z,102016.58
2018-05-18T03:00:59.341Z,102017.52
2018-05-18T03:03:27.068Z,102015.08
2018-05-18T03:05:54.649Z,102017.27
2018-05-18T03:08:22.260Z,102017.80
2018-05-18T03:10:49.842Z,102017.95
2018-05-18T03:13:17.986Z,102014.58
2018-05-18T03:15:45.824Z,102013.50
2018-05-18T03:18:13.472Z,102011.18
2018-05-18T03:20:41.632Z,102011.88
2018-05-18T03:23:09.556Z,102014.96
2018-05-18T03:25:37.126Z,102010.79
2018-05-18T03:28:04.810Z,102011.04
2018-05-18T03:30:32.645Z,102006.32
2018-05-18T03:33:00.295Z,102009.97
2018-05-18T03:35:27.937Z,102000.25
2018-05-18T03:37:55.555Z,102002.11
2018-05-18T03:40:23.132Z,102003.89
2018-05-18T03:42:51.153Z,102008.23
2018-05-18T03:45:18.993Z,102004.83
2018-05-18T03:47:46.635Z,101999.69
2018-05-18T03:50:14.784Z,101997.13
2018-05-18T03:52:42.589Z,102012.03
2018-05-18T03:55:10.202Z,102015.29
2018-05-18T03:57:37.924Z,102016.75
2018-05-18T04:00:05.526Z,102012.96
2018-05-18T04:02:45.379Z,102018.52
2018-05-18T04:05:24.777Z,102011.19
2018-05-18T04:08:04.452Z,102014.59
2018-05-18T04:10:32.034Z,102015.10
2018-05-18T04:12:59.858Z,102014.30
2018-05-18T04:15:27.514Z,102023.08
2018-05-18T04:17:55.152Z,102023.77
2018-05-18T04:20:22.794Z,102027.14
2018-05-18T04:22:59.681Z,102020.80
2018-05-18T04:25:27.269Z,102030.83
2018-05-18T04:27:54.865Z,102024.45
2018-05-18T04:30:22.621Z,102032.05
2018-05-18T04:32:50.699Z,102029.47
2018-05-18T04:35:18.347Z,102034.20
2018-05-18T04:37:45.980Z,102034.06
2018-05-18T04:40:13.647Z,102037.32
2018-05-18T04:42:57.541Z,102037.74
2018-05-18T04:45:25.193Z,102034.21
2018-05-18T04:47:52.781Z,102034.20
2018-05-18T04:50:20.581Z,102033.13
2018-05-18T04:52:48.421Z,102041.11
2018-05-18T04:55:15.988Z,102039.34
2018-05-18T04:57:43.687Z,102037.03
2018-05-18T05:00:11.257Z,102034.84
2018-05-18T05:02:38.831Z,102039.87
2018-05-18T05:05:06.446Z,102031.98
2018-05-18T05:07:34.057Z,102040.27
2018-05-18T05:10:02.016Z,102035.53
2018-05-18T05:12:30.290Z,102036.88
2018-05-18T05:14:58.208Z,102036.59
2018-05-18T05:17:25.789Z,102037.11
2018-05-18T05:19:53.562Z,102037.92
2018-05-18T05:22:21.173Z,102039.53
2018-05-18T05:24:48.750Z,102048.63
2018-05-18T05:27:16.370Z,102049.30
2018-05-18T05:29:43.944Z,102046.31
2018-05-18T05:32:11.633Z,102044.57
2018-05-18T05:34:39.289Z,102049.97
2018-05-18T05:37:07.164Z,102053.33
2018-05-18T05:39:34.839Z,102051.03
2018-05-18T05:42:02.408Z,102054.00
2018-05-18T05:44:31.089Z,102058.88
2018-05-18T05:46:58.803Z,102058.95
2018-05-18T05:49:26.688Z,102060.33
2018-05-18T05:51:54.381Z,102053.67
2018-05-18T05:54:22.455Z,102053.02
2018-05-18T05:56:50.029Z,102056.00
2018-05-18T05:59:17.615Z,102065.59
2018-05-18T06:01:45.255Z,102067.63
2018-05-18T06:04:12.848Z,102062.44
2018-05-18T06:06:40.713Z,102070.94
2018-05-18T06:09:08.758Z,102072.30
2018-05-18T06:11:36.329Z,102077.30
2018-05-18T06:14:03.925Z,102080.01
2018-05-18T06:16:32.031Z,102070.09
2018-05-18T06:18:59.611Z,102073.48
2018-05-18T06:21:27.208Z,102079.44
2018-05-18T06:23:55.316Z,102083.12
2018-05-18T06:26:22.906Z,102081.36
2018-05-18T06:28:50.494Z,102085.70
2018-05-18T06:31:18.429Z,102090.98
2018-05-18T06:33:46.077Z,102084.16
2018-05-18T06:36:13.647Z,102091.03
2018-05-18T06:38:41.352Z,102089.14
2018-05-18T06:41:09.137Z,102084.25
2018-05-18T06:43:37.076Z,102093.05
2018-05-18T06:46:04.650Z,102084.88
2018-05-18T06:48:32.271Z,102086.22
2018-05-18T06:50:59.910Z,102087.02
2018-05-18T06:53:27.530Z,102094.77
2018-05-18T06:55:55.105Z,102092.06
2018-05-18T06:58:22.687Z,102094.77
2018-05-18T07:00:50.326Z,102100.34
2018-05-18T07:03:17.913Z,102104.13
2018-05-18T07:05:45.985Z,102111.18
2018-05-18T07:08:13.621Z,102111.44
2018-05-18T07:10:41.275Z,102114.94
2018-05-18T07:13:09.816Z,102118.08
2018-05-18T07:15:37.398Z,102114.38
2018-05-18T07:18:04.992Z,102120.08
2018-05-18T07:20:32.782Z,102123.43
2018-05-18T07:23:00.451Z,102116.27
2018-05-18T07:25:28.029Z,102120.96
2018-05-18T07:27:55.744Z,102120.48
2018-05-18T07:30:23.584Z,102110.91
2018-05-18T07:32:51.229Z,102117.52
2018-05-18T07:35:18.952Z,102118.00
2018-05-18T07:37:46.987Z,102114.63
2018-05-18T07:40:14.811Z,102115.39
2018-05-18T07:42:42.458Z,102117.36
2018-05-18T07:45:10.044Z,102116.15
2018-05-18T07:47:37.640Z,102117.40
2018-05-18T07:50:05.444Z,102121.34
2018-05-18T07:52:33.007Z,102119.32
2018-05-18T07:55:00.596Z,102119.55
2018-05-18T07:57:28.315Z,102118.58
2018-05-18T07:59:55.970Z,102124.80
2018-05-18T08:02:23.536Z,102128.95
2018-05-18T08:04:51.148Z,102118.27
2018-05-18T08:07:18.807Z,102112.64
2018-05-18T08:09:46.445Z,102110.84
2018-05-18T08:12:14.084Z,102109.13
2018-05-18T08:14:41.729Z,102120.09
2018-05-18T08:17:09.357Z,102111.06
2018-05-18T08:19:36.949Z,102114.22
2018-05-18T08:22:04.845Z,102113.23
2018-05-18T08:24:32.495Z,102114.97
2018-05-18T08:30:03.009Z,102109.72
2018-05-18T08:32:30.694Z,102114.08
2018-05-18T08:34:58.647Z,102115.03
2018-05-18T08:37:26.273Z,102110.05
2018-05-18T08:39:53.958Z,102115.85
2018-05-18T08:42:21.521Z,102115.73
2018-05-18T08:44:49.096Z,102115.20
2018-05-18T08:47:16.695Z,102111.30
2018-05-18T08:49:44.620Z,102118.47
2018-05-18T08:52:12.846Z,102115.56
2018-05-18T08:54:40.406Z,102110.64
2018-05-18T08:57:08.160Z,102117.07
2018-05-18T08:59:35.755Z,102111.50
2018-05-18T09:02:03.420Z,102113.31
2018-05-18T09:04:31.204Z,102109.09
2018-05-18T09:06:58.905Z,102113.27
2018-05-18T09:09:26.489Z,102115.33
2018-05-18T09:11:54.133Z,102114.64
2018-05-18T09:14:21.726Z,102119.53
2018-05-18T09:16:49.308Z,102121.95
2018-05-18T09:19:17.257Z,102126.69
2018-05-18T09:21:44.829Z,102118.63
2018-05-18T09:24:12.410Z,102122.91
2018-05-18T09:26:39.999Z,102116.77
2018-05-18T09:29:07.584Z,102118.63
2018-05-18T09:31:35.359Z,102116.24
2018-05-18T09:34:02.980Z,102115.83
2018-05-18T09:36:30.592Z,102117.61
2018-05-18T09:38:58.643Z,102115.52
2018-05-18T09:41:26.211Z,102111.43
2018-05-18T09:43:53.798Z,102115.72
2018-05-18T09:46:21.393Z,102113.44
2018-05-18T09:48:49.017Z,102118.70
2018-05-18T09:51:16.644Z,102116.66
2018-05-18T09:53:44.246Z,102118.22
2018-05-18T09:56:11.814Z,102120.14
2018-05-18T09:58:39.799Z,102123.31
2018-05-18T10:01:07.385Z,102120.92
2018-05-18T10:03:35.002Z,102125.41
2018-05-18T10:06:02.612Z,102121.38
2018-05-18T10:08:30.255Z,102126.76
2018-05-18T10:10:57.857Z,102128.16
2018-05-18T10:13:25.437Z,102131.14
2018-05-18T10:15:53.076Z,102128.95
2018-05-18T10:18:20.888Z,102131.51
2018-05-18T10:20:48.537Z,102131.63
2018-05-18T10:23:16.140Z,102121.27
2018-05-18T10:25:43.715Z,102127.64
2018-05-18T10:28:11.559Z,102131.03
2018-05-18T10:30:39.180Z,102130.46
2018-05-18T10:33:06.872Z,102129.59
2018-05-18T10:35:34.467Z,102126.28
2018-05-18T10:38:02.101Z,102126.08
2018-05-18T10:40:29.780Z,102126.16
2018-05-18T10:42:57.355Z,102120.77
2018-05-18T10:45:24.994Z,102120.05
2018-05-18T10:47:52.887Z,102127.50
2018-05-18T10:50:20.506Z,102120.10
2018-05-18T10:52:48.071Z,102122.42
2018-05-18T10:55:15.720Z,102115.20
2018-05-18T10:57:43.321Z,102120.67
2018-05-18T11:00:10.937Z,102113.36
2018-05-18T11:02:38.520Z,102115.74
2018-05-18T11:05:06.148Z,102117.42
2018-05-18T11:07:33.778Z,102119.25
2018-05-18T11:10:01.597Z,102123.61
2018-05-18T11:12:29.220Z,102116.47
2018-05-18T11:14:56.789Z,102118.64
2018-05-18T11:17:24.575Z,102112.58
2018-05-18T11:19:52.168Z,102113.74
2018-05-18T11:22:19.801Z,102109.22
2018-05-18T11:24:47.391Z,102109.49
2018-05-18T11:27:15.056Z,102106.61
2018-05-18T11:29:42.636Z,102104.34
2018-05-18T11:32:10.275Z,102097.03
2018-05-18T11:34:38.252Z,102098.30
2018-05-18T11:37:06.103Z,102103.27
2018-05-18T11:39:33.659Z,102100.42
2018-05-18T11:42:01.656Z,102098.48
2018-05-18T11:44:29.285Z,102099.92
2018-05-18T11:46:56.853Z,102098.08
2018-05-18T11:49:24.726Z,102105.14
2018-05-18T11:51:52.525Z,102099.23
2018-05-18T11:54:20.153Z,102096.08
2018-05-18T11:56:47.977Z,102098.41
2018-05-18T11:59:15.835Z,102093.19
2018-05-18T12:01:43.445Z,102081.30
2018-05-18T12:04:11.134Z,102089.02
2018-05-18T12:06:38.691Z,102082.03
2018-05-18T12:09:06.244Z,102083.97
2018-05-18T12:11:33.988Z,102079.05
2018-05-18T12:14:01.619Z,102075.11
2018-05-18T12:16:29.149Z,102080.31
2018-05-18T12:18:56.969Z,102070.80
2018-05-18T12:21:24.524Z,102075.13
2018-05-18T12:23:52.586Z,102073.41
2018-05-18T12:26:20.144Z,102076.95
2018-05-18T12:28:47.777Z,102081.39
2018-05-18T12:31:15.383Z,102077.30
2018-05-18T12:33:42.944Z,102073.23
2018-05-18T12:36:10.532Z,102069.12
2018-05-18T12:38:38.115Z,102066.25
2018-05-18T12:41:05.740Z,102062.12
2018-05-18T12:43:33.296Z,102061.48
2018-05-18T12:46:00.925Z,102057.60
2018-05-18T12:48:28.501Z,102060.05
2018-05-18T12:50:56.068Z,102055.77
2018-05-18T12:53:23.678Z,102059.73
2018-05-18T12:55:51.243Z,102056.63
2018-05-18T12:58:18.849Z,102056.91
2018-05-18T13:00:46.447Z,102052.99
2018-05-18T13:03:14.034Z,102054.13
2018-05-18T13:05:41.861Z,102051.33
2018-05-18T13:08:09.516Z,102043.95
2018-05-18T13:10:37.046Z,102041.34
2018-05-18T13:13:04.620Z,102050.50
2018-05-18T13:15:32.199Z,102045.78
2018-05-18T13:18:00.294Z,102047.86
2018-05-18T13:20:28.049Z,102051.98
2018-05-18T13:22:55.753Z,102042.84
2018-05-18T13:25:23.320Z,102046.13
2018-05-18T13:27:50.911Z,102044.19
2018-05-18T13:30:18.554Z,102038.59
2018-05-18T13:32:46.119Z,102047.71
2018-05-18T13:35:13.689Z,102041.51
2018-05-18T13:37:41.423Z,102048.47
2018-05-18T13:40:09.052Z,102049.38
2018-05-18T13:42:36.611Z,102049.41
2018-05-18T13:45:04.618Z,102053.05
2018-05-18T13:47:32.574Z,102049.25
2018-05-18T13:50:00.188Z,102040.77
2018-05-18T13:52:27.754Z,102041.34
2018-05-18T13:54:57.267Z,102042.20
2018-05-18T13:57:24.823Z,102042.27
2018-05-18T13:59:52.481Z,102038.70
2018-05-18T14:02:20.101Z,102038.05
2018-05-18T14:04:47.927Z,102037.91
2018-05-18T14:07:15.574Z,102039.33
2018-05-18T14:09:43.216Z,102041.88
2018-05-18T14:12:10.796Z,102044.75
2018-05-18T14:14:40.765Z,102034.56
2018-05-18T14:17:08.621Z,102032.54
2018-05-18T14:19:36.427Z,102034.33
2018-05-18T14:22:03.985Z,102047.23
2018-05-18T14:24:31.569Z,102038.69
2018-05-18T14:26:59.369Z,102042.21
2018-05-18T14:29:26.967Z,102038.45
2018-05-18T14:31:54.567Z,102039.15
2018-05-18T14:34:22.324Z,102040.34
2018-05-18T14:36:49.933Z,102037.19
2018-05-18T14:39:17.494Z,102038.36
2018-05-18T14:41:45.081Z,102042.73
2018-05-18T14:44:12.691Z,102037.59
2018-05-18T14:46:40.289Z,102028.61
2018-05-18T14:49:08.086Z,102034.91
2018-05-18T14:51:35.700Z,102032.12
2018-05-18T14:54:03.335Z,102030.25
2018-05-18T14:56:30.986Z,102038.88
2018-05-18T14:58:59.456Z,102028.40
2018-05-18T15:01:27.020Z,102031.67
2018-05-18T15:03:54.935Z,102034.45
2018-05-18T15:06:22.524Z,102034.88
2018-05-18T15:08:50.165Z,102032.47
2018-05-18T15:11:17.791Z,102032.28
2018-05-18T15:13:45.409Z,102028.58
2018-05-18T15:16:13.016Z,102030.58
2018-05-18T15:18:40.643Z,102027.48
2018-05-18T15:21:08.242Z,102027.23
2018-05-18T15:23:35.869Z,102029.42
2018-05-18T15:26:03.548Z,102032.79
2018-05-18T15:28:31.184Z,102026.55
2018-05-18T15:30:59.507Z,102025.49
2018-05-18T15:33:27.083Z,102027.67
2018-05-18T15:35:54.643Z,102027.58
2018-05-18T15:38:22.228Z,102027.33
2018-05-18T15:40:50.033Z,102024.80
2018-05-18T15:43:18.080Z,102035.38
2018-05-18T15:45:45.654Z,102029.66
2018-05-18T15:48:13.207Z,102038.00
2018-05-18T15:50:41.116Z,102041.70
2018-05-18T15:53:08.668Z,102033.09
2018-05-18T15:55:36.235Z,102034.25
2018-05-18T15:58:03.815Z,102034.88
2018-05-18T16:00:31.394Z,102042.55
2018-05-18T16:02:59.007Z,102039.83
2018-05-18T16:05:26.585Z,102041.33
2018-05-18T16:07:54.163Z,102042.34
2018-05-18T16:10:21.876Z,102040.52
2018-05-18T16:12:49.533Z,102040.34
2018-05-18T16:15:17.024Z,102039.84
2018-05-18T16:17:44.615Z,102042.47
2018-05-18T16:20:12.209Z,102045.50
2018-05-18T16:22:40.089Z,102039.80
2018-05-18T16:25:07.918Z,102038.84
2018-05-18T16:27:35.549Z,102043.40
2018-05-18T16:30:03.432Z,102043.09
2018-05-18T16:32:31.006Z,102045.46
2018-05-18T16:34:58.610Z,102043.09
2018-05-18T16:37:27.104Z,102048.41
2018-05-18T16:39:55.158Z,102052.75
2018-05-18T16:42:22.805Z,102048.84
2018-05-18T16:44:50.431Z,102046.19
2018-05-18T16:47:18.072Z,102042.02
2018-05-18T16:49:45.634Z,102051.02
2018-05-18T16:52:13.551Z,102048.23
2018-05-18T16:54:41.115Z,102048.80
2018-05-18T16:57:08.679Z,102050.40
2018-05-18T16:59:36.272Z,102045.50
2018-05-18T17:02:03.835Z,102053.77
2018-05-18T17:04:31.845Z,102048.92
2018-05-18T17:06:59.476Z,102056.73
2018-05-18T17:09:27.034Z,102049.66
2018-05-18T17:11:54.646Z,102051.47
2018-05-18T17:14:22.200Z,102052.73
2018-05-18T17:16:49.772Z,102058.58
2018-05-18T17:19:17.378Z,102054.38
2018-05-18T17:21:44.947Z,102051.85
2018-05-18T17:24:12.532Z,102054.20
2018-05-18T17:26:40.105Z,102062.09
2018-05-18T17:29:07.710Z,102060.27
2018-05-18T17:31:35.368Z,102057.89
2018-05-18T17:34:03.241Z,102056.44
2018-05-18T17:36:30.947Z,102060.46
2018-05-18T17:38:58.892Z,102059.80
2018-05-18T17:41:26.514Z,102056.56
2018-05-18T17:43:54.812Z,102056.71
2018-05-18T17:46:22.373Z,102058.91
2018-05-18T17:48:49.968Z,102064.86
2018-05-18T17:51:17.606Z,102062.72
2018-05-18T17:53:45.184Z,102065.84
2018-05-18T17:56:12.840Z,102059.76
2018-05-18T17:58:40.399Z,102060.11
2018-05-18T18:01:07.991Z,102060.39
2018-05-18T18:03:35.578Z,102056.40
2018-05-18T18:06:03.178Z,102060.19
2018-05-18T18:08:30.749Z,102055.31
2018-05-18T18:10:58.419Z,102061.53
2018-05-18T18:13:26.026Z,102059.64
2018-05-18T18:15:53.659Z,102061.92
2018-05-18T18:18:21.498Z,102058.17
2018-05-18T18:20:49.429Z,102063.02
2018-05-18T18:23:17.019Z,102059.55
2018-05-18T18:25:44.589Z,102059.23
2018-05-18T18:28:12.232Z,102057.61
2018-05-18T18:30:39.868Z,102050.49
2018-05-18T18:33:07.669Z,102059.98
2018-05-18T18:35:35.271Z,102060.57
2018-05-18T18:38:02.925Z,102064.52
2018-05-18T18:40:30.559Z,102059.33
2018-05-18T18:42:58.145Z,102053.95
2018-05-18T18:45:25.792Z,102052.98
2018-05-18T18:47:53.437Z,102059.59
2018-05-18T18:50:21.011Z,102061.67
2018-05-18T18:52:48.575Z,102062.34
2018-05-18T18:55:16.216Z,102059.74
2018-05-18T18:57:44.042Z,102054.89
2018-05-18T19:00:11.627Z,102057.80
2018-05-18T19:02:39.275Z,102060.11
2018-05-18T19:05:06.834Z,102057.59
2018-05-18T19:07:34.660Z,102062.69
2018-05-18T19:10:02.485Z,102065.73
2018-05-18T19:12:30.313Z,102070.41
2018-05-18T19:14:57.905Z,102075.23
2018-05-18T19:17:25.476Z,102073.31
2018-05-18T19:19:53.086Z,102070.05
2018-05-18T19:22:20.662Z,102070.70
2018-05-18T19:24:48.235Z,102072.57
2018-05-18T19:27:15.843Z,102077.86
2018-05-18T19:29:43.620Z,102073.25
2018-05-18T19:32:11.158Z,102077.66
2018-05-18T19:34:38.724Z,102072.48
2018-05-18T19:37:06.464Z,102073.70
2018-05-18T19:39:34.068Z,102077.36
2018-05-18T19:42:01.700Z,102079.97
2018-05-18T19:44:29.674Z,102080.47
2018-05-18T19:46:57.274Z,102086.03
2018-05-18T19:49:24.828Z,102077.28
2018-05-18T19:51:52.533Z,102075.44
2018-05-18T19:54:20.095Z,102071.77
2018-05-18T19:56:47.725Z,102077.63
2018-05-18T19:59:15.498Z,102071.70
2018-05-18T20:01:43.346Z,102086.67
2018-05-18T20:04:10.920Z,102077.27
2018-05-18T20:06:38.527Z,102078.19
2018-05-18T20:09:06.164Z,102081.27
2018-05-18T20:11:34.001Z,102071.06
2018-05-18T20:14:01.664Z,102074.23
2018-05-18T20:16:29.243Z,102078.07
2018-05-18T20:18:57.200Z,102071.95
2018-05-18T20:21:24.776Z,102074.91
2018-05-18T20:23:52.370Z,102081.73
2018-05-18T20:26:20.194Z,102078.52
2018-05-18T20:28:47.802Z,102086.41
2018-05-18T20:31:15.455Z,102088.33
2018-05-18T20:33:43.038Z,102088.50
2018-05-18T20:36:10.842Z,102083.71
2018-05-18T20:38:38.413Z,102092.16
2018-05-18T20:41:05.986Z,102093.43
2018-05-18T20:43:33.592Z,102088.53
2018-05-18T20:46:01.283Z,102084.52
2018-05-18T20:48:28.847Z,102091.50
2018-05-18T20:50:56.490Z,102095.16
2018-05-18T20:53:24.576Z,102095.72
2018-05-18T20:55:52.145Z,102084.02
2018-05-18T20:58:19.765Z,102085.38
2018-05-18T21:00:47.411Z,102086.17
2018-05-18T21:03:15.052Z,102082.36
2018-05-18T21:05:42.859Z,102091.34
2018-05-18T21:08:10.447Z,102099.39
2018-05-18T21:10:38.128Z,102094.22
2018-05-18T21:13:05.822Z,102097.47
2018-05-18T21:15:33.680Z,102093.83
2018-05-18T21:18:01.322Z,102091.25
2018-05-18T21:20:29.095Z,102093.58
2018-05-18T21:22:56.793Z,102095.63
2018-05-18T21:25:24.421Z,102096.06
2018-05-18T21:27:52.055Z,102094.44
2018-05-18T21:30:20.080Z,102095.23
2018-05-18T21:32:48.361Z,102099.97
2018-05-18T21:35:15.946Z,102099.83
2018-05-18T21:37:43.543Z,102098.59
2018-05-18T21:40:11.202Z,102090.75
2018-05-18T21:42:38.826Z,102099.27
2018-05-18T21:45:06.471Z,102100.19
2018-05-18T21:47:34.098Z,102099.78
2018-05-18T21:50:01.752Z,102093.92
2018-05-18T21:52:29.918Z,102096.38
2018-05-18T21:54:57.492Z,102093.80
2018-05-18T21:57:25.242Z,102092.56
2018-05-18T21:59:52.830Z,102095.26
2018-05-18T22:02:20.525Z,102100.11
2018-05-18T22:04:48.102Z,102096.69
2018-05-18T22:07:15.737Z,102093.38
2018-05-18T22:09:43.500Z,102089.56
2018-05-18T22:12:11.197Z,102095.66
2018-05-18T22:14:38.873Z,102092.94
2018-05-18T22:17:06.594Z,102093.47
2018-05-18T22:19:34.227Z,102097.41
2018-05-18T22:22:02.025Z,102100.43
2018-05-18T22:24:29.947Z,102094.69
2018-05-18T22:26:57.596Z,102091.14
2018-05-18T22:29:25.201Z,102099.04
2018-05-18T22:31:53.001Z,102085.28
2018-05-18T22:34:20.729Z,102094.66
2018-05-18T22:36:48.314Z,102095.46
2018-05-18T22:39:16.518Z,102090.94
2018-05-18T22:41:44.102Z,102091.65
2018-05-18T22:44:11.918Z,102092.06
2018-05-18T22:46:39.826Z,102086.88
2018-05-18T22:49:07.863Z,102088.66
2018-05-18T22:51:35.572Z,102093.19
2018-05-18T22:54:03.234Z,102090.05
2018-05-18T22:56:30.946Z,102089.25
2018-05-18T22:58:58.680Z,102089.62
2018-05-18T23:01:27.281Z,102087.50
2018-05-18T23:03:54.960Z,102085.48
2018-05-18T23:06:22.535Z,102081.41
2018-05-18T23:08:50.315Z,102084.03
2018-05-18T23:11:17.890Z,102083.77
2018-05-18T23:13:45.466Z,102084.06
2018-05-18T23:16:13.772Z,102080.80
2018-05-18T23:18:41.854Z,102087.60
2018-05-18T23:21:09.924Z,102083.67
2018-05-18T23:23:37.764Z,102084.23
2018-05-18T23:26:05.812Z,102078.14
2018-05-18T23:28:34.176Z,102086.03
2018-05-18T23:31:01.751Z,102085.77
2018-05-18T23:33:29.340Z,102084.82
2018-05-18T23:35:56.972Z,102078.55
2018-05-18T23:38:24.614Z,102078.42
2018-05-18T23:40:52.206Z,102080.23
2018-05-18T23:43:19.816Z,102078.59
2018-05-18T23:45:47.451Z,102075.38
2018-05-18T23:48:15.062Z,102074.31
2018-05-18T23:50:42.627Z,102064.94
2018-05-18T23:53:10.236Z,102064.94
2018-05-18T23:55:37.818Z,102071.03
2018-05-18T23:58:05.446Z,102062.98
